Time;durP1;ratioP1;P1;durP2;ratioP2;P2;SDS_P1;SDS_P2;PMS_P1;PMS_P2;Temp;Humidity;BMP_temperature;BMP_pressure;BME280_temperature;BME280_humidity;BME280_pressure;Samples;Min_cycle;Max_cycle;Signal;HPM_P1;HPM_P2
2021/06/12 00:01:24;;;;;;;17.97;16.23;;;18.40;99.90;;;;;;5069140;28;20399;-81
2021/06/12 00:03:50;;;;;;;16.57;14.77;;;18.30;99.90;;;;;;5095033;28;20405;-81
2021/06/12 00:06:15;;;;;;;16.10;14.40;;;18.30;99.90;;;;;;5068472;28;20183;-81
2021/06/12 00:08:41;;;;;;;17.67;15.97;;;18.30;99.90;;;;;;5103294;28;20374;-81
2021/06/12 00:11:07;;;;;;;17.97;15.93;;;18.30;99.90;;;;;;5120065;28;20239;-81
2021/06/12 00:13:33;;;;;;;17.83;16.03;;;18.20;99.90;;;;;;5126035;28;20229;-80
2021/06/12 00:15:59;;;;;;;18.57;16.77;;;18.10;99.90;;;;;;5126866;28;20166;-81
2021/06/12 00:18:25;;;;;;;16.40;14.80;;;18.10;99.90;;;;;;5125220;28;20172;-81
2021/06/12 00:20:55;;;;;;;15.03;13.67;;;18.10;99.90;;;;;;5126178;28;20166;-81
2021/06/12 00:23:20;;;;;;;18.37;16.70;;;18.00;99.90;;;;;;5125325;28;20431;-81
2021/06/12 00:25:46;;;;;;;19.17;17.27;;;18.00;99.90;;;;;;5125381;28;20392;-82
2021/06/12 00:28:12;;;;;;;16.50;14.80;;;18.00;99.90;;;;;;5126037;28;20597;-81
2021/06/12 00:30:38;;;;;;;17.67;15.80;;;18.00;99.90;;;;;;5124891;28;20212;-82
2021/06/12 00:33:05;;;;;;;18.17;16.07;;;17.80;99.90;;;;;;5124447;28;20165;-82
2021/06/12 00:35:32;;;;;;;18.10;16.40;;;17.80;99.90;;;;;;5125620;28;20150;-82
2021/06/12 00:37:58;;;;;;;18.80;15.63;;;17.80;99.90;;;;;;5125324;28;20813;-81
2021/06/12 00:40:25;;;;;;;18.77;17.00;;;17.80;99.90;;;;;;5124635;28;20420;-81
2021/06/12 00:42:51;;;;;;;20.17;18.07;;;17.90;99.90;;;;;;5124873;28;20192;-82
2021/06/12 00:45:21;;;;;;;19.73;17.70;;;17.90;99.90;;;;;;5125027;28;20395;-81
2021/06/12 00:47:49;;;;;;;17.97;16.37;;;17.80;99.90;;;;;;5124057;28;20450;-81
2021/06/12 00:50:16;;;;;;;19.13;17.23;;;17.90;99.90;;;;;;5124408;28;20446;-82
2021/06/12 00:52:43;;;;;;;18.93;17.10;;;17.80;99.90;;;;;;5124810;28;20480;-82
2021/06/12 00:55:11;;;;;;;18.77;16.80;;;17.80;99.90;;;;;;5124630;28;20417;-81
2021/06/12 00:57:38;;;;;;;18.43;16.50;;;17.80;99.90;;;;;;5124361;28;20772;-81
2021/06/12 01:00:07;;;;;;;23.13;18.97;;;17.70;99.90;;;;;;5124257;28;20380;-81
2021/06/12 01:02:34;;;;;;;17.47;15.87;;;17.60;99.90;;;;;;5126985;28;20396;-81
2021/06/12 01:05:00;;;;;;;20.17;18.17;;;17.60;99.90;;;;;;5126021;28;20410;-80
2021/06/12 01:07:26;;;;;;;20.23;18.33;;;17.60;99.90;;;;;;5128213;28;20416;-80
2021/06/12 01:09:52;;;;;;;18.47;16.47;;;17.70;99.90;;;;;;5128799;28;20278;-81
2021/06/12 01:12:31;;;;;;;19.50;17.70;;;17.60;99.90;;;;;;5125268;28;20391;-81
2021/06/12 01:15:04;;;;;;;20.03;17.40;;;17.60;99.90;;;;;;5125075;28;20391;-81
2021/06/12 01:17:37;;;;;;;24.83;17.97;;;17.60;99.90;;;;;;5124245;28;20384;-81
2021/06/12 01:20:32;;;;;;;20.27;18.30;;;17.50;99.90;;;;;;5125262;28;20408;-81
2021/06/12 01:23:31;;;;;;;20.27;18.20;;;17.50;99.90;;;;;;5125437;28;20422;-81
2021/06/12 01:26:10;;;;;;;18.53;16.30;;;17.60;99.90;;;;;;5123634;28;20400;-81
2021/06/12 01:29:02;;;;;;;19.17;17.17;;;17.60;99.90;;;;;;5125792;28;20479;-82
2021/06/12 01:31:29;;;;;;;19.80;17.90;;;17.60;99.90;;;;;;5128266;28;20392;-82
2021/06/12 01:33:58;;;;;;;18.70;16.63;;;17.60;99.90;;;;;;5129644;28;20723;-82
2021/06/12 01:36:25;;;;;;;18.60;16.90;;;17.90;99.90;;;;;;5138687;28;20380;-79
2021/06/12 01:38:54;;;;;;;19.70;17.80;;;17.90;99.90;;;;;;5140930;28;20481;-79
2021/06/12 01:41:21;;;;;;;21.90;18.30;;;17.80;99.90;;;;;;5140692;28;20384;-79
2021/06/12 01:43:48;;;;;;;18.23;16.43;;;17.90;99.90;;;;;;5138780;28;20386;-80
2021/06/12 01:46:15;;;;;;;18.97;17.17;;;17.90;99.90;;;;;;5135143;28;20388;-81
2021/06/12 01:48:44;;;;;;;20.83;18.83;;;17.90;99.90;;;;;;5128687;28;20511;-81
2021/06/12 01:51:11;;;;;;;18.60;16.70;;;18.00;99.90;;;;;;5128814;28;20484;-81
2021/06/12 01:53:39;;;;;;;20.07;18.10;;;18.20;99.90;;;;;;5128230;28;20395;-81
2021/06/12 01:56:10;;;;;;;18.03;16.43;;;18.30;99.90;;;;;;5125812;28;20467;-81
2021/06/12 01:58:39;;;;;;;20.57;16.60;;;18.40;99.90;;;;;;5126641;28;20396;-81
2021/06/12 02:01:08;;;;;;;19.17;16.40;;;18.50;99.90;;;;;;5128300;28;20384;-81
2021/06/12 02:03:35;;;;;;;17.63;15.73;;;18.50;99.90;;;;;;5127551;28;20399;-81
2021/06/12 02:06:02;;;;;;;17.43;15.73;;;18.50;99.90;;;;;;5126571;28;20402;-81
2021/06/12 02:08:29;;;;;;;18.00;16.20;;;18.50;99.90;;;;;;5127861;28;20431;-81
2021/06/12 02:10:56;;;;;;;18.50;16.40;;;18.40;99.90;;;;;;5126207;28;20436;-81
2021/06/12 02:13:24;;;;;;;18.30;16.53;;;18.20;99.90;;;;;;5128508;28;20415;-81
2021/06/12 02:15:55;;;;;;;19.37;17.47;;;18.30;99.90;;;;;;5127126;28;20392;-81
2021/06/12 02:18:22;;;;;;;17.67;15.97;;;18.50;99.90;;;;;;5127583;28;20392;-82
2021/06/12 02:20:50;;;;;;;17.93;16.03;;;18.50;99.90;;;;;;5127210;28;20396;-81
2021/06/12 02:23:17;;;;;;;17.43;15.73;;;18.60;99.90;;;;;;5125545;28;20399;-81
2021/06/12 02:25:44;;;;;;;18.20;16.50;;;18.60;99.90;;;;;;5125816;28;20392;-81
2021/06/12 02:28:13;;;;;;;17.90;16.20;;;18.60;99.90;;;;;;5127185;28;20396;-81
2021/06/12 02:30:45;;;;;;;15.03;13.73;;;18.60;99.90;;;;;;5124862;28;20439;-81
2021/06/12 02:33:14;;;;;;;16.37;14.87;;;18.50;99.90;;;;;;5126095;28;20760;-82
2021/06/12 02:35:40;;;;;;;17.90;16.10;;;18.40;99.90;;;;;;5127102;28;20403;-81
2021/06/12 02:38:09;;;;;;;17.43;15.80;;;18.40;99.90;;;;;;5126540;28;20406;-81
2021/06/12 02:40:36;;;;;;;18.83;16.73;;;18.40;99.90;;;;;;5127090;28;20434;-81
2021/06/12 02:43:02;;;;;;;17.77;16.23;;;18.40;99.90;;;;;;5125567;28;20396;-81
2021/06/12 02:45:29;;;;;;;18.00;16.40;;;18.40;99.90;;;;;;5127228;28;20395;-81
2021/06/12 02:47:59;;;;;;;17.30;15.57;;;18.30;99.90;;;;;;5127495;28;20984;-81
2021/06/12 02:50:30;;;;;;;17.47;15.93;;;18.10;99.90;;;;;;5127491;28;20441;-81
2021/06/12 02:53:04;;;;;;;16.70;15.20;;;17.70;99.90;;;;;;5127694;28;20399;-81
2021/06/12 02:55:33;;;;;;;16.40;14.70;;;17.50;99.90;;;;;;5127526;28;20478;-81
2021/06/12 02:58:00;;;;;;;17.73;16.13;;;17.30;99.90;;;;;;5126991;28;20475;-82
2021/06/12 03:00:27;;;;;;;15.53;14.00;;;17.10;99.90;;;;;;5126998;28;20483;-82
2021/06/12 03:02:54;;;;;;;18.27;14.47;;;17.30;99.90;;;;;;5126836;28;20457;-81
2021/06/12 03:05:25;;;;;;;15.10;13.80;;;17.10;99.90;;;;;;5128093;28;20864;-81
2021/06/12 03:07:55;;;;;;;16.83;15.43;;;17.20;99.90;;;;;;5126465;28;20436;-81
2021/06/12 03:10:23;;;;;;;18.23;16.43;;;17.10;99.90;;;;;;5127532;28;20515;-81
2021/06/12 03:12:50;;;;;;;17.83;15.30;;;17.00;99.90;;;;;;5126573;28;20408;-81
2021/06/12 03:15:18;;;;;;;16.50;14.90;;;16.90;99.90;;;;;;5127130;28;20849;-82
2021/06/12 03:17:45;;;;;;;18.93;17.03;;;17.00;99.90;;;;;;5126093;28;20400;-81
2021/06/12 03:20:14;;;;;;;18.57;16.77;;;17.00;99.90;;;;;;5124861;28;20463;-81
2021/06/12 03:22:45;;;;;;;20.20;17.70;;;17.00;99.90;;;;;;5126462;28;20486;-82
2021/06/12 03:25:12;;;;;;;19.60;16.07;;;17.00;99.90;;;;;;5126627;28;20441;-82
2021/06/12 03:27:39;;;;;;;17.10;15.47;;;17.00;99.90;;;;;;5127548;28;20506;-82
2021/06/12 03:30:05;;;;;;;18.27;16.40;;;16.90;99.90;;;;;;5126023;28;20435;-82
2021/06/12 03:32:32;;;;;;;18.63;16.77;;;16.90;99.90;;;;;;5127237;28;20407;-82
2021/06/12 03:34:59;;;;;;;17.70;15.93;;;16.90;99.90;;;;;;5126922;28;20387;-82
2021/06/12 03:37:26;;;;;;;17.93;15.07;;;16.90;99.90;;;;;;5127651;28;20395;-82
2021/06/12 03:39:52;;;;;;;17.27;15.67;;;16.80;99.90;;;;;;5117570;28;20396;-81
2021/06/12 03:42:18;;;;;;;17.90;16.10;;;16.80;99.90;;;;;;5138557;28;20430;-80
2021/06/12 03:44:45;;;;;;;20.03;18.23;;;16.80;99.90;;;;;;5135488;28;20408;-82
2021/06/12 03:47:12;;;;;;;17.40;15.70;;;16.70;99.90;;;;;;5125829;28;20392;-83
2021/06/12 03:49:39;;;;;;;19.20;16.70;;;16.70;99.90;;;;;;5125847;28;20968;-83
2021/06/12 03:52:06;;;;;;;19.60;18.00;;;16.70;99.90;;;;;;5126539;28;20466;-83
2021/06/12 03:54:34;;;;;;;17.10;15.43;;;16.70;99.90;;;;;;5125543;28;20380;-83
2021/06/12 03:57:01;;;;;;;16.93;15.40;;;16.60;99.90;;;;;;5126142;28;20449;-82
2021/06/12 03:59:27;;;;;;;24.70;16.50;;;16.50;99.90;;;;;;5126718;28;20396;-83
2021/06/12 04:01:55;;;;;;;17.80;16.00;;;16.40;99.90;;;;;;5126256;28;20392;-83
2021/06/12 04:04:22;;;;;;;17.67;15.73;;;16.40;99.90;;;;;;5126184;28;20171;-82
2021/06/12 04:06:47;;;;;;;20.80;16.83;;;16.40;99.90;;;;;;5126605;28;20403;-83
2021/06/12 04:09:13;;;;;;;17.60;15.90;;;16.40;99.90;;;;;;5124886;28;20427;-83
2021/06/12 04:11:39;;;;;;;19.80;17.70;;;16.60;99.90;;;;;;5125652;28;20244;-83
2021/06/12 04:14:05;;;;;;;22.40;15.93;;;16.70;99.90;;;;;;5108612;28;20169;-83
2021/06/12 04:16:31;;;;;;;17.57;15.77;;;16.50;99.90;;;;;;5126664;28;20166;-83
2021/06/12 04:18:59;;;;;;;18.23;16.43;;;16.60;99.90;;;;;;5127424;28;20222;-82
2021/06/12 04:21:24;;;;;;;18.53;16.63;;;16.60;99.90;;;;;;5126955;28;20415;-83
2021/06/12 04:23:50;;;;;;;17.97;15.80;;;16.60;99.90;;;;;;5126332;28;20423;-83
2021/06/12 04:26:16;;;;;;;18.60;16.70;;;16.60;99.90;;;;;;5128141;28;20173;-83
2021/06/12 04:28:42;;;;;;;20.27;18.27;;;16.80;99.90;;;;;;5126521;28;20198;-82
2021/06/12 04:31:07;;;;;;;19.57;16.17;;;17.20;99.90;;;;;;5126595;28;20198;-82
2021/06/12 04:33:33;;;;;;;19.60;16.57;;;17.20;99.90;;;;;;5128714;28;20535;-82
2021/06/12 04:35:59;;;;;;;20.10;15.40;;;17.00;99.90;;;;;;5128888;28;20221;-83
2021/06/12 04:38:25;;;;;;;18.63;16.63;;;17.00;99.90;;;;;;5136360;28;20162;-80
2021/06/12 04:40:51;;;;;;;17.93;16.23;;;17.00;99.90;;;;;;5138334;28;20210;-81
2021/06/12 04:43:16;;;;;;;21.97;19.87;;;17.10;99.90;;;;;;5138913;28;20154;-82
2021/06/12 04:45:42;;;;;;;21.50;16.87;;;17.00;99.90;;;;;;5138629;28;20186;-80
2021/06/12 04:48:09;;;;;;;18.00;16.30;;;17.10;99.90;;;;;;5137543;28;20289;-80
2021/06/12 04:50:38;;;;;;;20.53;16.83;;;17.10;99.90;;;;;;5138137;28;20189;-82
2021/06/12 04:53:05;;;;;;;20.17;16.30;;;17.20;99.90;;;;;;5124874;28;20451;-82
2021/06/12 04:55:32;;;;;;;18.03;16.27;;;17.30;99.90;;;;;;5124638;28;20387;-82
2021/06/12 04:57:57;;;;;;;20.70;18.70;;;17.40;99.90;;;;;;5106798;28;20437;-82
2021/06/12 05:00:24;;;;;;;18.00;16.10;;;17.40;99.90;;;;;;5123785;28;20396;-82
2021/06/12 05:02:49;;;;;;;20.70;18.70;;;17.70;99.90;;;;;;5106821;28;20158;-82
2021/06/12 05:05:15;;;;;;;25.57;18.73;;;17.70;99.90;;;;;;5125894;28;20400;-82
2021/06/12 05:07:41;;;;;;;17.70;15.80;;;17.80;99.90;;;;;;5128367;28;20201;-82
2021/06/12 05:10:09;;;;;;;19.00;17.10;;;17.80;99.90;;;;;;5128833;28;20695;-83
2021/06/12 05:12:37;;;;;;;18.33;16.23;;;17.90;99.90;;;;;;5128543;28;20527;-82
2021/06/12 05:15:05;;;;;;;17.67;15.97;;;17.90;99.90;;;;;;5127250;28;20403;-83
2021/06/12 05:17:30;;;;;;;18.57;16.47;;;18.10;99.90;;;;;;5128721;28;20455;-82
2021/06/12 05:19:57;;;;;;;19.40;17.33;;;18.10;99.90;;;;;;5110979;28;20451;-83
2021/06/12 05:22:23;;;;;;;18.17;16.13;;;18.10;99.90;;;;;;5128480;28;20505;-83
2021/06/12 05:24:49;;;;;;;18.73;16.83;;;18.20;99.90;;;;;;5128782;28;20400;-83
2021/06/12 05:27:15;;;;;;;20.10;15.93;;;18.20;99.90;;;;;;5128812;28;20391;-83
2021/06/12 05:29:41;;;;;;;17.50;15.37;;;18.20;99.90;;;;;;5129641;28;20537;-83
2021/06/12 05:32:07;;;;;;;18.03;16.33;;;18.40;99.90;;;;;;5128360;28;20415;-82
2021/06/12 05:34:33;;;;;;;16.77;15.17;;;18.50;99.90;;;;;;5128594;28;20163;-83
2021/06/12 05:37:00;;;;;;;15.83;14.43;;;18.70;99.90;;;;;;5127614;28;20490;-83
2021/06/12 05:39:26;;;;;;;24.13;16.10;;;18.60;99.90;;;;;;5129237;28;20219;-83
2021/06/12 05:41:52;;;;;;;17.93;14.67;;;18.80;99.90;;;;;;5111763;28;20396;-83
2021/06/12 05:44:17;;;;;;;17.93;16.30;;;18.90;99.90;;;;;;5128335;28;20189;-83
2021/06/12 05:46:43;;;;;;;16.37;14.83;;;18.80;99.90;;;;;;5128410;28;20166;-83
2021/06/12 05:49:09;;;;;;;20.10;13.57;;;18.80;99.90;;;;;;5128906;28;20213;-83
2021/06/12 05:51:35;;;;;;;15.80;14.30;;;18.80;99.90;;;;;;5127883;28;20166;-83
2021/06/12 05:54:01;;;;;;;16.70;15.10;;;18.80;99.90;;;;;;5111795;28;20253;-83
2021/06/12 05:56:27;;;;;;;16.37;14.87;;;18.90;99.90;;;;;;5130311;28;20399;-83
2021/06/12 05:58:52;;;;;;;16.83;14.97;;;18.90;99.90;;;;;;5129566;27;20173;-83
2021/06/12 06:01:18;;;;;;;14.70;13.27;;;19.20;99.90;;;;;;5129004;28;20178;-83
2021/06/12 06:03:44;;;;;;;15.00;13.60;;;19.10;99.90;;;;;;5128817;28;20158;-83
2021/06/12 06:06:10;;;;;;;16.93;15.33;;;19.20;99.90;;;;;;5133130;28;20168;-83
2021/06/12 06:08:36;;;;;;;15.10;13.57;;;19.30;99.90;;;;;;5141004;28;20244;-82
2021/06/12 06:11:04;;;;;;;15.50;14.20;;;19.20;99.90;;;;;;5141050;28;20448;-82
2021/06/12 06:13:36;;;;;;;14.47;12.97;;;19.20;99.90;;;;;;5140332;28;20407;-82
2021/06/12 06:16:02;;;;;;;16.17;14.57;;;19.50;99.90;;;;;;5139092;28;20417;-83
2021/06/12 06:18:28;;;;;;;14.73;13.23;;;19.60;99.90;;;;;;5131976;28;20447;-83
2021/06/12 06:20:53;;;;;;;15.33;13.90;;;19.50;99.90;;;;;;5127821;28;20603;-83
2021/06/12 06:23:19;;;;;;;16.97;15.37;;;19.60;99.90;;;;;;5129447;28;20201;-83
2021/06/12 06:25:45;;;;;;;14.70;13.23;;;19.60;99.90;;;;;;5127450;28;20162;-82
2021/06/12 06:28:11;;;;;;;14.37;12.97;;;19.90;99.90;;;;;;5128576;28;20595;-82
2021/06/12 06:30:37;;;;;;;16.00;12.40;;;20.00;99.90;;;;;;5127565;28;20201;-82
2021/06/12 06:33:03;;;;;;;14.43;13.13;;;20.00;99.90;;;;;;5128030;28;20602;-82
2021/06/12 06:35:28;;;;;;;15.73;14.33;;;20.10;99.90;;;;;;5126079;28;20233;-82
2021/06/12 06:37:54;;;;;;;14.23;12.83;;;20.20;99.90;;;;;;5126596;28;20161;-82
2021/06/12 06:40:20;;;;;;;14.23;13.03;;;20.50;99.90;;;;;;5126358;28;20580;-83
2021/06/12 06:42:47;;;;;;;17.33;15.53;;;20.40;99.90;;;;;;5126848;28;20400;-82
2021/06/12 06:45:13;;;;;;;15.47;14.07;;;20.30;99.90;;;;;;5126337;28;20166;-82
2021/06/12 06:47:39;;;;;;;15.47;13.77;;;20.50;99.90;;;;;;5127461;28;20438;-83
2021/06/12 06:50:06;;;;;;;14.93;13.33;;;20.30;99.90;;;;;;5126703;28;20204;-82
2021/06/12 06:52:32;;;;;;;15.73;14.43;;;20.80;99.90;;;;;;5127633;28;20222;-83
2021/06/12 06:54:58;;;;;;;16.83;15.40;;;20.80;99.90;;;;;;5126491;28;20434;-82
2021/06/12 06:57:24;;;;;;;14.87;13.40;;;20.90;99.90;;;;;;5124622;28;20182;-83
2021/06/12 06:59:50;;;;;;;15.80;14.27;;;20.70;99.90;;;;;;5127275;28;20172;-83
2021/06/12 07:02:16;;;;;;;14.20;12.90;;;20.60;99.90;;;;;;5126530;28;20400;-83
2021/06/12 07:04:41;;;;;;;14.17;12.97;;;20.70;99.90;;;;;;5127543;28;20400;-81
2021/06/12 07:07:08;;;;;;;14.07;12.77;;;21.10;99.90;;;;;;5126501;27;20174;-83
2021/06/12 07:09:34;;;;;;;14.60;13.10;;;21.40;99.90;;;;;;5125129;28;20208;-83
2021/06/12 07:12:02;;;;;;;14.77;13.57;;;21.50;99.90;;;;;;5124485;28;20537;-80
2021/06/12 07:14:28;;;;;;;14.63;13.33;;;21.60;99.90;;;;;;5125877;28;20400;-83
2021/06/12 07:16:54;;;;;;;13.33;12.07;;;21.80;99.90;;;;;;5124421;28;20527;-82
2021/06/12 07:19:21;;;;;;;14.53;13.13;;;22.00;99.90;;;;;;5125833;28;20396;-83
2021/06/12 07:21:47;;;;;;;16.70;12.13;;;22.20;99.90;;;;;;5125626;28;20392;-83
2021/06/12 07:24:13;;;;;;;14.93;13.43;;;22.30;99.90;;;;;;5124755;28;20388;-84
2021/06/12 07:26:39;;;;;;;15.33;13.97;;;22.40;99.90;;;;;;5123989;28;20392;-81
2021/06/12 07:29:05;;;;;;;14.17;12.77;;;22.40;99.90;;;;;;5107426;28;20154;-81
2021/06/12 07:31:31;;;;;;;14.17;12.97;;;22.20;99.90;;;;;;5124274;28;20511;-81
2021/06/12 07:33:57;;;;;;;13.87;12.63;;;22.00;99.90;;;;;;5125719;28;20153;-81
2021/06/12 07:36:23;;;;;;;13.33;11.93;;;22.20;99.90;;;;;;5125917;28;20230;-80
2021/06/12 07:38:49;;;;;;;12.03;10.93;;;22.30;99.90;;;;;;5107604;28;20173;-81
2021/06/12 07:41:15;;;;;;;14.73;11.90;;;22.50;99.90;;;;;;5124226;28;20396;-81
2021/06/12 07:43:41;;;;;;;11.50;10.60;;;22.60;99.90;;;;;;5125521;28;20169;-82
2021/06/12 07:46:07;;;;;;;19.83;13.20;;;22.70;99.90;;;;;;5124907;28;20167;-82
2021/06/12 07:48:33;;;;;;;15.67;12.00;;;22.80;99.90;;;;;;5125958;28;20477;-82
2021/06/12 07:50:59;;;;;;;14.50;13.10;;;22.90;99.90;;;;;;5125590;28;20193;-82
2021/06/12 07:53:24;;;;;;;14.77;13.33;;;23.10;99.90;;;;;;5125707;28;20154;-82
2021/06/12 07:55:50;;;;;;;32.47;12.67;;;22.90;99.90;;;;;;5126064;28;20170;-82
2021/06/12 07:58:16;;;;;;;16.50;13.23;;;23.20;99.90;;;;;;5124446;28;20238;-82
2021/06/12 08:00:42;;;;;;;20.53;13.70;;;23.40;99.90;;;;;;5125319;28;20169;-82
2021/06/12 08:03:07;;;;;;;15.87;13.80;;;23.50;99.90;;;;;;5125105;28;20170;-82
2021/06/12 08:05:33;;;;;;;16.10;14.70;;;23.50;99.90;;;;;;5124143;28;20168;-82
2021/06/12 08:07:59;;;;;;;14.30;13.10;;;23.40;99.90;;;;;;5107341;28;20302;-82
2021/06/12 08:10:26;;;;;;;15.87;14.27;;;22.90;99.90;;;;;;5125648;28;20193;-81
2021/06/12 08:12:51;;;;;;;14.50;12.97;;;22.70;99.90;;;;;;5123363;28;20165;-83
2021/06/12 08:15:17;;;;;;;15.83;13.77;;;23.10;99.90;;;;;;5125132;28;20396;-83
2021/06/12 08:17:44;;;;;;;14.40;13.20;;;23.40;99.90;;;;;;5126313;28;20215;-84
2021/06/12 08:20:10;;;;;;;14.00;12.60;;;23.50;99.90;;;;;;5132335;28;20415;-80
2021/06/12 08:22:36;;;;;;;14.67;13.30;;;23.40;99.90;;;;;;5114562;28;20399;-83
2021/06/12 08:25:04;;;;;;;13.47;11.13;;;23.30;99.90;;;;;;5125725;28;20396;-84
2021/06/12 08:27:30;;;;;;;12.13;11.10;;;23.50;99.90;;;;;;5126131;28;20173;-82
2021/06/12 08:29:56;;;;;;;12.70;10.90;;;23.80;99.90;;;;;;5092092;28;20807;-83
2021/06/12 08:32:28;;;;;;;11.73;10.83;;;24.00;99.90;;;;;;5108827;28;20406;-85
2021/06/12 08:34:53;;;;;;;14.80;11.43;;;23.70;99.90;;;;;;5123756;28;20412;-83
2021/06/12 08:37:19;;;;;;;11.43;10.43;;;24.00;99.90;;;;;;5123459;28;20177;-83
2021/06/12 08:39:45;;;;;;;11.40;9.03;;;24.10;99.90;;;;;;5116519;28;20162;-83
2021/06/12 08:42:11;;;;;;;11.93;10.97;;;24.10;99.90;;;;;;5129541;28;20161;-83
2021/06/12 08:44:37;;;;;;;10.93;10.00;;;24.30;99.90;;;;;;5128833;28;20166;-83
2021/06/12 08:47:04;;;;;;;12.03;10.77;;;24.30;99.90;;;;;;5129176;28;20166;-83
2021/06/12 08:49:30;;;;;;;11.50;10.60;;;24.20;99.90;;;;;;5127286;28;20980;-83
2021/06/12 08:51:56;;;;;;;12.53;11.43;;;24.10;99.90;;;;;;5129364;28;20400;-83
2021/06/12 08:54:25;;;;;;;10.90;9.90;;;24.00;99.90;;;;;;5129667;28;20158;-83
2021/06/12 08:56:51;;;;;;;10.37;9.40;;;24.00;99.90;;;;;;5128330;28;20169;-83
2021/06/12 08:59:21;;;;;;;10.50;8.30;;;23.80;99.90;;;;;;5090262;28;20413;-83
2021/06/12 09:01:47;;;;;;;9.27;8.57;;;23.90;99.90;;;;;;5108429;28;20503;-81
2021/06/12 09:04:46;;;;;;;9.67;8.90;;;23.90;99.90;;;;;;5107914;28;20412;-82
2021/06/12 09:07:26;;;;;;;9.57;8.10;;;23.80;99.90;;;;;;5108678;28;20487;-79
2021/06/12 09:09:56;;;;;;;9.50;8.67;;;23.80;99.90;;;;;;5112477;28;20424;-80
2021/06/12 09:12:42;;;;;;;8.37;7.77;;;24.00;99.90;;;;;;5101416;28;20409;-82
2021/06/12 09:15:10;;;;;;;8.17;7.50;;;24.40;99.90;;;;;;5104218;28;20519;-82
2021/06/12 09:17:45;;;;;;;8.57;7.70;;;24.70;99.90;;;;;;5101194;28;20876;-82
2021/06/12 09:20:18;;;;;;;7.50;7.00;;;24.50;99.90;;;;;;5101102;28;20416;-82
2021/06/12 09:22:44;;;;;;;7.80;7.10;;;24.90;99.90;;;;;;5094611;28;20416;-82
2021/06/12 09:25:10;;;;;;;4.80;4.50;;;25.10;99.90;;;;;;5107406;28;20429;-82
2021/06/12 09:27:38;;;;;;;5.47;4.97;;;25.30;99.90;;;;;;5108517;28;20169;-82
2021/06/12 09:30:07;;;;;;;4.57;4.27;;;25.30;99.90;;;;;;5089173;28;20439;-82
2021/06/12 09:32:45;;;;;;;9.00;5.13;;;25.50;99.90;;;;;;5128200;28;20467;-82
2021/06/12 09:35:11;;;;;;;7.43;5.97;;;25.70;99.90;;;;;;5129264;28;20391;-82
2021/06/12 09:37:38;;;;;;;5.70;5.20;;;25.70;99.90;;;;;;5110547;28;20392;-82
2021/06/12 09:40:14;;;;;;;5.07;4.63;;;25.60;99.90;;;;;;5128869;28;20876;-82
2021/06/12 09:42:43;;;;;;;7.77;6.03;;;25.60;99.90;;;;;;5127708;28;20876;-83
2021/06/12 09:45:12;;;;;;;5.77;5.27;;;25.70;99.90;;;;;;5129264;28;20396;-82
2021/06/12 09:47:38;;;;;;;4.47;4.03;;;25.70;99.90;;;;;;5127307;28;20391;-82
2021/06/12 09:50:05;;;;;;;5.70;5.03;;;25.80;99.90;;;;;;5127820;28;20451;-82
2021/06/12 09:52:45;;;;;;;5.07;4.67;;;26.00;99.90;;;;;;5109529;28;20392;-84
2021/06/12 09:55:29;;;;;;;11.20;4.43;;;26.30;99.90;;;;;;5109535;28;20495;-83
2021/06/12 09:57:57;;;;;;;4.80;4.40;;;26.60;99.90;;;;;;5127982;28;20429;-83
2021/06/12 10:00:38;;;;;;;6.20;5.30;;;26.80;99.90;;;;;;5128752;28;20400;-83
2021/06/12 10:03:15;;;;;;;5.57;5.00;;;26.70;99.90;;;;;;5108930;28;20415;-81
2021/06/12 10:05:41;;;;;;;6.03;3.83;;;26.60;99.90;;;;;;5128358;28;20863;-83
2021/06/12 10:08:07;;;;;;;6.57;4.00;;;26.70;99.90;;;;;;5109632;28;20542;-83
2021/06/12 10:10:33;;;;;;;3.50;3.30;;;26.70;99.90;;;;;;5127507;28;20219;-83
2021/06/12 10:13:05;;;;;;;4.00;3.70;;;26.50;99.90;;;;;;5129298;28;20383;-83
2021/06/12 10:15:32;;;;;;;3.30;3.00;;;26.60;99.90;;;;;;5129389;28;20260;-83
2021/06/12 10:17:58;;;;;;;4.70;4.30;;;26.60;99.90;;;;;;5129034;28;20404;-82
2021/06/12 10:20:25;;;;;;;3.27;3.03;;;26.30;99.90;;;;;;5112386;28;20396;-82
2021/06/12 10:22:52;;;;;;;3.00;2.70;;;26.10;99.90;;;;;;5126018;28;20487;-83
2021/06/12 10:25:21;;;;;;;6.80;3.80;;;26.10;99.90;;;;;;5110450;28;20396;-83
2021/06/12 10:27:49;;;;;;;4.20;3.80;;;26.40;99.90;;;;;;5126677;28;20718;-83
2021/06/12 10:30:19;;;;;;;3.63;3.30;;;26.70;99.90;;;;;;5126389;28;20447;-83
2021/06/12 10:32:49;;;;;;;4.27;3.97;;;26.70;99.90;;;;;;5126781;28;20403;-83
2021/06/12 10:35:24;;;;;;;4.07;3.70;;;26.90;99.90;;;;;;5109594;28;20399;-83
2021/06/12 10:38:02;;;;;;;4.23;3.50;;;27.10;99.90;;;;;;5126808;28;20391;-84
2021/06/12 10:40:48;;;;;;;4.40;4.00;;;27.00;99.90;;;;;;5127284;28;20407;-83
2021/06/12 10:43:17;;;;;;;4.00;3.70;;;27.10;99.90;;;;;;5126121;28;20503;-83
2021/06/12 10:45:46;;;;;;;5.23;4.73;;;27.20;99.90;;;;;;5127052;28;20474;-83
2021/06/12 10:48:43;;;;;;;4.13;3.83;;;27.40;99.90;;;;;;5109329;28;20927;-83
2021/06/12 10:51:13;;;;;;;5.10;4.70;;;27.50;99.90;;;;;;5125014;28;20439;-82
2021/06/12 10:53:42;;;;;;;4.93;4.53;;;27.40;99.90;;;;;;5124795;28;20392;-82
2021/06/12 10:56:11;;;;;;;3.97;3.77;;;27.50;99.90;;;;;;5125332;28;20398;-80
2021/06/12 10:58:41;;;;;;;4.13;3.77;;;27.20;99.90;;;;;;5125683;28;20387;-81
2021/06/12 11:01:15;;;;;;;4.40;4.03;;;27.50;99.90;;;;;;5125799;28;20433;-82
2021/06/12 11:04:19;;;;;;;4.07;3.77;;;27.50;99.90;;;;;;5109084;28;20392;-82
2021/06/12 11:06:54;;;;;;;4.20;3.90;;;27.30;99.90;;;;;;5110907;28;20444;-81
2021/06/12 11:09:32;;;;;;;4.47;4.07;;;27.60;99.90;;;;;;5126668;28;20570;-84
2021/06/12 11:12:04;;;;;;;4.87;4.37;;;27.80;99.90;;;;;;5127625;28;20395;-82
2021/06/12 11:14:33;;;;;;;4.60;4.20;;;27.10;99.90;;;;;;5108796;28;20487;-83
2021/06/12 11:17:18;;;;;;;4.60;4.20;;;26.80;99.90;;;;;;5127856;28;20383;-82
2021/06/12 11:19:47;;;;;;;4.50;3.40;;;26.50;99.90;;;;;;5108923;28;20418;-83
2021/06/12 11:22:29;;;;;;;3.73;3.43;;;26.30;99.90;;;;;;5127036;28;20395;-83
2021/06/12 11:24:58;;;;;;;3.97;3.63;;;26.70;99.90;;;;;;5127283;28;20399;-83
2021/06/12 11:27:30;;;;;;;4.60;4.20;;;27.00;99.90;;;;;;5126257;28;20770;-82
2021/06/12 11:30:23;;;;;;;4.27;3.87;;;27.10;99.90;;;;;;5125773;28;20888;-83
2021/06/12 11:33:12;;;;;;;8.70;4.23;;;27.10;99.90;;;;;;5110523;28;20498;-82
2021/06/12 11:35:53;;;;;;;5.33;4.80;;;27.10;99.90;;;;;;5111180;28;20399;-83
2021/06/12 11:38:30;;;;;;;5.40;3.63;;;27.20;99.90;;;;;;5124872;28;20860;-81
2021/06/12 11:41:08;;;;;;;3.20;2.90;;;27.40;99.90;;;;;;5123459;28;20415;-81
2021/06/12 11:43:49;;;;;;;3.33;3.03;;;27.40;99.90;;;;;;5108011;28;20486;-82
2021/06/12 11:46:31;;;;;;;3.13;2.27;;;27.90;99.90;;;;;;5116243;28;20400;-83
2021/06/12 11:48:57;;;;;;;2.67;2.47;;;28.10;99.90;;;;;;5108063;28;20451;-83
2021/06/12 11:51:31;;;;;;;3.53;2.93;;;28.40;99.90;;;;;;5126483;28;20770;-83
2021/06/12 11:54:13;;;;;;;3.87;2.80;;;28.50;99.90;;;;;;5128976;28;20383;-83
2021/06/12 11:56:50;;;;;;;4.03;3.13;;;28.20;99.90;;;;;;5128763;28;20387;-83
2021/06/12 11:59:20;;;;;;;2.53;2.33;;;27.90;99.90;;;;;;5124859;28;20399;-83
2021/06/12 12:01:48;;;;;;;2.40;2.20;;;28.10;99.90;;;;;;5125970;28;20379;-83
2021/06/12 12:04:18;;;;;;;3.00;2.80;;;28.20;99.90;;;;;;5094145;28;20392;-82
2021/06/12 12:06:54;;;;;;;2.37;2.17;;;28.00;99.90;;;;;;5132617;28;20387;-83
2021/06/12 12:09:37;;;;;;;5.13;2.77;;;28.20;99.90;;;;;;5116257;28;20498;-83
2021/06/12 12:12:06;;;;;;;2.53;2.43;;;28.30;99.90;;;;;;5133379;28;20710;-83
2021/06/12 12:14:42;;;;;;;3.47;2.63;;;28.30;99.90;;;;;;5117298;28;20411;-83
2021/06/12 12:17:25;;;;;;;2.23;1.97;;;28.70;99.90;;;;;;5134917;28;20398;-83
2021/06/12 12:20:03;;;;;;;2.93;2.10;;;28.80;99.90;;;;;;5134973;28;20420;-81
2021/06/12 12:22:38;;;;;;;2.33;2.23;;;28.70;99.90;;;;;;5135733;28;20416;-82
2021/06/12 12:25:08;;;;;;;2.97;2.73;;;28.70;99.90;;;;;;5133610;28;20367;-82
2021/06/12 12:27:34;;;;;;;2.63;2.43;;;28.90;99.90;;;;;;5093633;28;20887;-82
2021/06/12 12:30:00;;;;;;;2.93;2.70;;;28.70;99.90;;;;;;5126361;28;20447;-82
2021/06/12 12:32:25;;;;;;;3.37;3.07;;;28.70;99.90;;;;;;5108413;28;20154;-82
2021/06/12 12:34:52;;;;;;;2.80;2.60;;;28.80;99.90;;;;;;5125933;28;20160;-82
2021/06/12 12:37:21;;;;;;;2.97;2.77;;;28.80;99.90;;;;;;5108329;28;20162;-82
2021/06/12 12:39:49;;;;;;;2.60;2.40;;;28.70;99.90;;;;;;5108959;28;20407;-82
2021/06/12 12:42:20;;;;;;;3.20;3.00;;;29.20;99.90;;;;;;5126321;28;20523;-83